Time;durP1;ratioP1;P1;durP2;ratioP2;P2;SDS_P1;SDS_P2;PMS_P1;PMS_P2;Temp;Humidity;BMP_temperature;BMP_pressure;BME280_temperature;BME280_humidity;BME280_pressure;Samples;Min_cycle;Max_cycle;Signal;HPM_P1;HPM_P2
2021/08/16 00:00:21;;;;;;;12.10;9.70;;;;;;;;;;4916193;29;20048;-68
2021/08/16 00:02:47;;;;;;;16.15;9.48;;;;;;;;;;4916060;29;20087;-68
2021/08/16 00:05:15;;;;;;;13.15;9.75;;;;;;;;;;4905162;29;20056;-68
2021/08/16 00:07:43;;;;;;;12.00;10.00;;;;;;;;;;4896967;29;20108;-68
2021/08/16 00:10:11;;;;;;;15.30;10.82;;;;;;;;;;4897539;29;20053;-69
2021/08/16 00:12:37;;;;;;;14.90;10.20;;;;;;;;;;4897292;29;20484;-69
2021/08/16 00:15:04;;;;;;;17.35;10.68;;;;;;;;;;4897144;29;20092;-68
2021/08/16 00:17:31;;;;;;;15.93;10.50;;;;;;;;;;4896878;29;20059;-67
2021/08/16 00:19:58;;;;;;;13.55;9.85;;;;;;;;;;4897080;29;20056;-69
2021/08/16 00:22:24;;;;;;;14.88;10.10;;;;;;;;;;4896975;29;20512;-68
2021/08/16 00:24:51;;;;;;;16.92;11.25;;;;;;;;;;4896760;29;20496;-68
2021/08/16 00:27:18;;;;;;;15.85;11.13;;;;;;;;;;4880219;29;20090;-68
2021/08/16 00:29:44;;;;;;;13.55;11.00;;;;;;;;;;4880572;29;20091;-68
2021/08/16 00:32:11;;;;;;;16.48;11.95;;;;;;;;;;4896906;29;20080;-68
2021/08/16 00:34:37;;;;;;;16.58;11.90;;;;;;;;;;4901101;29;20076;-68
2021/08/16 00:37:04;;;;;;;14.95;11.20;;;;;;;;;;4915804;29;20076;-68
2021/08/16 00:39:31;;;;;;;12.95;10.48;;;;;;;;;;4915533;29;20052;-68
2021/08/16 00:41:57;;;;;;;11.45;9.80;;;;;;;;;;4899044;29;20079;-68
2021/08/16 00:44:24;;;;;;;11.90;10.25;;;;;;;;;;4914900;29;20106;-67
2021/08/16 00:46:51;;;;;;;14.48;10.68;;;;;;;;;;4915543;29;20111;-68
2021/08/16 00:49:17;;;;;;;12.63;10.35;;;;;;;;;;4915328;29;20084;-68
2021/08/16 00:51:44;;;;;;;11.65;10.35;;;;;;;;;;4915516;29;20056;-68
2021/08/16 00:54:11;;;;;;;13.35;10.60;;;;;;;;;;4897575;29;20079;-68
2021/08/16 00:56:38;;;;;;;11.77;10.40;;;;;;;;;;4900448;29;20092;-68
2021/08/16 00:59:06;;;;;;;12.00;9.52;;;;;;;;;;4900361;29;20049;-68
2021/08/16 01:01:33;;;;;;;12.95;10.30;;;;;;;;;;4900516;29;20080;-68
2021/08/16 01:03:59;;;;;;;10.57;9.07;;;;;;;;;;4900536;29;20468;-68
2021/08/16 01:06:26;;;;;;;12.60;10.43;;;;;;;;;;4900043;29;20084;-68
2021/08/16 01:08:53;;;;;;;13.13;9.38;;;;;;;;;;4900236;29;20108;-68
2021/08/16 01:11:19;;;;;;;13.98;10.75;;;;;;;;;;4900320;29;20420;-68
2021/08/16 01:13:47;;;;;;;15.43;10.27;;;;;;;;;;4900791;29;20057;-68
2021/08/16 01:16:16;;;;;;;12.65;9.35;;;;;;;;;;4899079;29;20057;-68
2021/08/16 01:18:43;;;;;;;16.65;9.60;;;;;;;;;;4898746;29;20056;-68
2021/08/16 01:21:11;;;;;;;15.85;9.77;;;;;;;;;;4900013;29;20075;-68
2021/08/16 01:23:38;;;;;;;10.85;9.57;;;;;;;;;;4898867;29;20076;-68
2021/08/16 01:26:05;;;;;;;14.38;9.52;;;;;;;;;;4900052;29;20084;-68
2021/08/16 01:28:31;;;;;;;14.75;9.55;;;;;;;;;;4899804;29;20085;-69
2021/08/16 01:31:01;;;;;;;9.57;8.35;;;;;;;;;;4899985;29;20052;-68
2021/08/16 01:33:28;;;;;;;11.40;8.77;;;;;;;;;;4898904;29;20108;-68
2021/08/16 01:35:55;;;;;;;12.95;9.15;;;;;;;;;;4899853;29;20504;-68
2021/08/16 01:38:26;;;;;;;10.65;8.38;;;;;;;;;;4899676;29;20497;-68
2021/08/16 01:40:52;;;;;;;14.90;10.30;;;;;;;;;;4899905;29;20052;-68
2021/08/16 01:43:19;;;;;;;10.73;8.80;;;;;;;;;;4899735;29;20189;-68
2021/08/16 01:45:45;;;;;;;12.23;8.32;;;;;;;;;;4898539;29;20147;-68
2021/08/16 01:48:13;;;;;;;13.05;9.50;;;;;;;;;;4899550;29;20049;-68
2021/08/16 01:50:43;;;;;;;10.93;8.98;;;;;;;;;;4899646;29;20465;-68
2021/08/16 01:53:10;;;;;;;12.15;9.27;;;;;;;;;;4904714;29;20080;-68
2021/08/16 01:55:36;;;;;;;13.57;10.07;;;;;;;;;;4916883;29;20079;-68
2021/08/16 01:58:03;;;;;;;10.38;9.20;;;;;;;;;;4918401;29;20056;-68
2021/08/16 02:00:30;;;;;;;13.38;9.27;;;;;;;;;;4918292;29;20055;-68
2021/08/16 02:02:57;;;;;;;11.65;9.05;;;;;;;;;;4913956;29;20460;-67
2021/08/16 02:05:24;;;;;;;11.02;8.38;;;;;;;;;;4898637;29;20053;-68
2021/08/16 02:07:50;;;;;;;10.75;9.65;;;;;;;;;;4899045;29;20083;-68
2021/08/16 02:10:18;;;;;;;15.68;9.27;;;;;;;;;;4899469;29;20144;-67
2021/08/16 02:12:44;;;;;;;13.48;9.43;;;;;;;;;;4899149;29;20048;-68
2021/08/16 02:15:11;;;;;;;12.95;9.65;;;;;;;;;;4899325;29;20135;-68
2021/08/16 02:17:38;;;;;;;16.50;10.00;;;;;;;;;;4899098;29;20144;-68
2021/08/16 02:20:06;;;;;;;17.40;10.18;;;;;;;;;;4899165;29;20052;-67
2021/08/16 02:22:32;;;;;;;12.38;9.70;;;;;;;;;;4899066;29;20083;-68
2021/08/16 02:24:59;;;;;;;10.85;9.35;;;;;;;;;;4897951;29;20143;-68
2021/08/16 02:27:25;;;;;;;9.95;7.68;;;;;;;;;;4898747;29;20092;-67
2021/08/16 02:29:52;;;;;;;12.57;9.40;;;;;;;;;;4899007;29;20077;-68
2021/08/16 02:32:19;;;;;;;14.38;10.27;;;;;;;;;;4898891;29;20123;-68
2021/08/16 02:34:45;;;;;;;11.13;9.98;;;;;;;;;;4898088;29;20086;-68
2021/08/16 02:37:12;;;;;;;11.05;8.85;;;;;;;;;;4898671;29;20052;-67
2021/08/16 02:39:39;;;;;;;11.90;10.70;;;;;;;;;;4898865;29;20072;-68
2021/08/16 02:42:06;;;;;;;11.48;10.07;;;;;;;;;;4899695;29;20091;-68
2021/08/16 02:44:32;;;;;;;12.85;9.95;;;;;;;;;;4897482;29;20076;-68
2021/08/16 02:46:59;;;;;;;14.85;10.52;;;;;;;;;;4898692;29;20052;-68
2021/08/16 02:49:26;;;;;;;16.98;10.35;;;;;;;;;;4898664;29;20160;-68
2021/08/16 02:51:52;;;;;;;12.68;10.48;;;;;;;;;;4898590;29;20088;-68
2021/08/16 02:54:19;;;;;;;18.90;11.82;;;;;;;;;;4897340;29;20087;-68
2021/08/16 02:56:45;;;;;;;13.10;11.80;;;;;;;;;;4898538;29;20088;-68
2021/08/16 02:59:12;;;;;;;16.10;12.60;;;;;;;;;;4901166;29;20088;-68
2021/08/16 03:01:39;;;;;;;12.02;10.75;;;;;;;;;;4899988;29;20052;-68
2021/08/16 03:04:05;;;;;;;13.30;10.50;;;;;;;;;;4898534;29;20056;-68
2021/08/16 03:06:32;;;;;;;13.60;9.80;;;;;;;;;;4911052;29;20079;-68
2021/08/16 03:08:58;;;;;;;12.60;9.70;;;;;;;;;;4916892;29;20044;-68
2021/08/16 03:11:26;;;;;;;13.00;9.88;;;;;;;;;;4916904;29;20111;-68
2021/08/16 03:13:53;;;;;;;11.38;9.10;;;;;;;;;;4917265;29;20085;-68
2021/08/16 03:16:20;;;;;;;12.15;9.20;;;;;;;;;;4916088;29;20051;-68
2021/08/16 03:18:47;;;;;;;19.20;10.40;;;;;;;;;;4916953;29;20058;-68
2021/08/16 03:21:14;;;;;;;16.95;9.60;;;;;;;;;;4915648;29;20064;-68
2021/08/16 03:23:41;;;;;;;13.27;8.80;;;;;;;;;;4917215;29;20092;-68
2021/08/16 03:26:08;;;;;;;14.38;8.93;;;;;;;;;;4917006;29;20052;-68
2021/08/16 03:28:35;;;;;;;10.40;8.77;;;;;;;;;;4916512;29;20095;-68
2021/08/16 03:31:02;;;;;;;13.20;9.63;;;;;;;;;;4916777;29;20558;-67
2021/08/16 03:33:29;;;;;;;13.77;7.10;;;;;;;;;;4916648;29;20056;-68
2021/08/16 03:35:55;;;;;;;13.98;8.75;;;;;;;;;;4916763;29;20131;-68
2021/08/16 03:38:22;;;;;;;11.60;8.95;;;;;;;;;;4929320;23;20044;-68
2021/08/16 03:40:48;;;;;;;13.32;8.38;;;;;;;;;;4877919;29;20083;-68
2021/08/16 03:43:15;;;;;;;10.70;8.35;;;;;;;;;;4878632;29;20577;-68
2021/08/16 03:45:41;;;;;;;15.13;8.15;;;;;;;;;;4879010;29;20088;-68
2021/08/16 03:48:08;;;;;;;11.23;7.85;;;;;;;;;;4878527;29;20084;-68
2021/08/16 03:50:35;;;;;;;9.98;8.00;;;;;;;;;;4860145;29;20100;-68
2021/08/16 03:53:01;;;;;;;13.40;8.07;;;;;;;;;;4859588;29;20476;-68
2021/08/16 03:55:28;;;;;;;12.38;9.20;;;;;;;;;;4859638;29;20182;-68
2021/08/16 03:57:54;;;;;;;11.85;8.13;;;;;;;;;;4860061;29;20073;-68
2021/08/16 04:00:21;;;;;;;13.73;8.88;;;;;;;;;;4859904;29;20437;-68
2021/08/16 04:02:47;;;;;;;10.30;9.10;;;;;;;;;;4859161;29;20082;-68
2021/08/16 04:05:14;;;;;;;14.57;9.30;;;;;;;;;;4860097;29;20092;-68
2021/08/16 04:07:43;;;;;;;11.93;8.77;;;;;;;;;;4860680;29;20101;-69
2021/08/16 04:10:11;;;;;;;10.90;8.32;;;;;;;;;;4859785;29;20053;-68
2021/08/16 04:12:37;;;;;;;9.35;8.35;;;;;;;;;;4859331;29;20064;-69
2021/08/16 04:15:15;;;;;;;13.63;8.57;;;;;;;;;;4859068;29;20053;-69
2021/08/16 04:17:42;;;;;;;12.30;9.65;;;;;;;;;;4858353;29;20065;-69
2021/08/16 04:20:12;;;;;;;10.90;9.60;;;;;;;;;;4859149;29;20088;-69
2021/08/16 04:22:39;;;;;;;13.55;10.65;;;;;;;;;;4858386;29;20561;-69
2021/08/16 04:25:10;;;;;;;16.55;10.23;;;;;;;;;;4859540;29;20573;-69
2021/08/16 04:27:39;;;;;;;15.18;9.40;;;;;;;;;;4859703;29;20061;-68
2021/08/16 04:30:07;;;;;;;16.45;10.70;;;;;;;;;;4858440;29;20050;-68
2021/08/16 04:32:33;;;;;;;16.33;10.07;;;;;;;;;;4858629;29;20096;-68
2021/08/16 04:35:00;;;;;;;15.55;10.27;;;;;;;;;;4858754;29;20057;-69
2021/08/16 04:37:27;;;;;;;15.20;11.85;;;;;;;;;;4859185;29;20077;-69
2021/08/16 04:39:54;;;;;;;13.50;10.55;;;;;;;;;;4859462;29;20046;-69
2021/08/16 04:42:20;;;;;;;15.90;11.00;;;;;;;;;;4858760;29;20089;-68
2021/08/16 04:44:47;;;;;;;12.50;9.43;;;;;;;;;;4861183;29;20095;-68
2021/08/16 04:47:14;;;;;;;14.88;8.98;;;;;;;;;;4860384;29;20096;-68
2021/08/16 04:49:40;;;;;;;11.80;7.88;;;;;;;;;;4862775;29;20168;-68
2021/08/16 04:52:07;;;;;;;11.43;7.65;;;;;;;;;;4864702;29;20056;-68
2021/08/16 04:54:33;;;;;;;16.65;9.15;;;;;;;;;;4864789;29;20084;-68
2021/08/16 04:57:00;;;;;;;11.25;7.95;;;;;;;;;;4847475;29;20065;-68
2021/08/16 04:59:26;;;;;;;10.35;7.45;;;;;;;;;;4861893;29;20092;-68
2021/08/16 05:01:53;;;;;;;12.40;7.50;;;;;;;;;;4862037;29;20398;-69
2021/08/16 05:04:20;;;;;;;9.18;7.47;;;;;;;;;;4866038;29;20053;-69
2021/08/16 05:06:46;;;;;;;11.15;7.93;;;;;;;;;;4862215;29;20136;-69
2021/08/16 05:09:13;;;;;;;9.15;7.35;;;;;;;;;;4863655;29;20076;-68
2021/08/16 05:11:40;;;;;;;8.70;7.32;;;;;;;;;;4862202;29;20054;-69
2021/08/16 05:14:06;;;;;;;11.43;7.20;;;;;;;;;;4861320;29;20077;-69
2021/08/16 05:16:33;;;;;;;10.52;7.57;;;;;;;;;;4862255;29;20082;-68
2021/08/16 05:19:01;;;;;;;11.57;7.15;;;;;;;;;;4846403;29;20064;-69
2021/08/16 05:21:29;;;;;;;12.18;7.72;;;;;;;;;;4873763;29;20037;-68
2021/08/16 05:23:56;;;;;;;12.35;7.38;;;;;;;;;;4868417;29;20057;-66
2021/08/16 05:26:23;;;;;;;11.32;7.38;;;;;;;;;;4867743;29;20053;-67
2021/08/16 05:28:49;;;;;;;12.65;8.00;;;;;;;;;;4865746;29;20045;-66
2021/08/16 05:31:16;;;;;;;8.52;6.65;;;;;;;;;;4869112;29;20086;-66
2021/08/16 05:33:42;;;;;;;10.13;7.03;;;;;;;;;;4867814;29;20057;-66
2021/08/16 05:36:09;;;;;;;12.63;6.68;;;;;;;;;;4874229;29;20053;-66
2021/08/16 05:38:35;;;;;;;11.27;7.10;;;;;;;;;;4870415;29;20077;-67
2021/08/16 05:41:02;;;;;;;11.75;7.00;;;;;;;;;;4875595;29;20535;-66
2021/08/16 05:43:28;;;;;;;8.35;6.60;;;;;;;;;;4875462;29;20053;-66
2021/08/16 05:45:55;;;;;;;10.68;6.82;;;;;;;;;;4878177;29;20521;-66
2021/08/16 05:48:22;;;;;;;11.10;6.82;;;;;;;;;;4879065;29;20064;-66
2021/08/16 05:50:48;;;;;;;7.47;6.00;;;;;;;;;;4877009;29;20053;-66
2021/08/16 05:53:15;;;;;;;13.32;6.55;;;;;;;;;;4874736;29;20105;-66
2021/08/16 05:55:44;;;;;;;13.00;6.60;;;;;;;;;;4874725;29;20057;-66
2021/08/16 05:58:11;;;;;;;10.93;6.15;;;;;;;;;;4875633;29;20161;-66
2021/08/16 06:00:37;;;;;;;10.98;5.70;;;;;;;;;;4876141;29;20049;-66
2021/08/16 06:03:04;;;;;;;9.02;5.93;;;;;;;;;;4878943;29;20049;-67
2021/08/16 06:05:31;;;;;;;12.45;6.28;;;;;;;;;;4889362;29;20052;-66
2021/08/16 06:07:57;;;;;;;11.25;5.30;;;;;;;;;;4879705;29;20053;-66
2021/08/16 06:10:24;;;;;;;9.07;4.85;;;;;;;;;;4879558;29;20050;-66
2021/08/16 06:12:51;;;;;;;7.15;5.30;;;;;;;;;;4872351;29;20054;-66
2021/08/16 06:15:17;;;;;;;8.90;5.15;;;;;;;;;;4872507;29;20069;-66
2021/08/16 06:17:44;;;;;;;5.95;4.97;;;;;;;;;;4872200;29;20451;-67
2021/08/16 06:20:11;;;;;;;10.75;5.88;;;;;;;;;;4868491;29;20049;-66
2021/08/16 06:22:38;;;;;;;10.77;5.70;;;;;;;;;;4871538;29;20058;-65
2021/08/16 06:25:05;;;;;;;7.72;4.40;;;;;;;;;;4866761;29;20113;-67
2021/08/16 06:27:31;;;;;;;7.32;4.68;;;;;;;;;;4862521;29;20085;-68
2021/08/16 06:29:58;;;;;;;6.97;5.22;;;;;;;;;;4862409;29;20050;-67
2021/08/16 06:32:25;;;;;;;7.88;4.30;;;;;;;;;;4863329;29;20075;-67
2021/08/16 06:34:51;;;;;;;5.95;4.32;;;;;;;;;;4864425;29;20064;-67
2021/08/16 06:37:21;;;;;;;9.23;4.82;;;;;;;;;;4862950;29;20064;-69
2021/08/16 06:39:48;;;;;;;7.45;4.38;;;;;;;;;;4864256;29;20057;-68
2021/08/16 06:42:14;;;;;;;6.38;4.72;;;;;;;;;;4862823;29;20057;-68
2021/08/16 06:44:41;;;;;;;6.57;3.72;;;;;;;;;;4863070;29;20111;-68
2021/08/16 06:47:08;;;;;;;7.07;3.60;;;;;;;;;;4863376;29;20072;-67
2021/08/16 06:49:34;;;;;;;7.63;3.75;;;;;;;;;;4862366;29;20493;-68
2021/08/16 06:52:01;;;;;;;6.22;4.22;;;;;;;;;;4860188;29;20079;-68
2021/08/16 06:54:27;;;;;;;6.20;3.90;;;;;;;;;;4861599;29;20096;-68
2021/08/16 06:57:00;;;;;;;6.00;4.10;;;;;;;;;;4861365;29;20053;-68
2021/08/16 06:59:27;;;;;;;5.72;3.95;;;;;;;;;;4861505;29;20057;-68
2021/08/16 07:01:53;;;;;;;8.55;4.55;;;;;;;;;;4864082;29;20769;-68
2021/08/16 07:04:21;;;;;;;5.32;3.63;;;;;;;;;;4861358;29;20700;-68
2021/08/16 07:06:48;;;;;;;7.82;4.22;;;;;;;;;;4864755;29;20073;-69
2021/08/16 07:09:14;;;;;;;5.93;3.53;;;;;;;;;;4867050;29;20058;-67
2021/08/16 07:11:41;;;;;;;5.38;3.40;;;;;;;;;;4862219;29;20057;-69
2021/08/16 07:14:08;;;;;;;10.77;4.00;;;;;;;;;;4862672;29;20541;-69
2021/08/16 07:16:34;;;;;;;9.60;4.53;;;;;;;;;;4861261;29;20087;-69
2021/08/16 07:19:02;;;;;;;7.68;3.47;;;;;;;;;;4861002;29;20058;-68
2021/08/16 07:21:29;;;;;;;7.18;3.70;;;;;;;;;;4860764;29;20058;-68
2021/08/16 07:23:56;;;;;;;7.07;3.40;;;;;;;;;;4860868;29;20050;-68
2021/08/16 07:26:22;;;;;;;6.05;3.97;;;;;;;;;;4860442;29;20092;-68
2021/08/16 07:28:49;;;;;;;7.57;3.60;;;;;;;;;;4860825;29;20099;-69
2021/08/16 07:31:15;;;;;;;4.10;3.13;;;;;;;;;;4861387;29;20092;-69
2021/08/16 07:33:42;;;;;;;9.10;4.43;;;;;;;;;;4858158;29;20064;-69
2021/08/16 07:36:09;;;;;;;5.75;3.88;;;;;;;;;;4857101;29;20057;-69
2021/08/16 07:38:35;;;;;;;8.38;4.03;;;;;;;;;;4857938;29;20099;-69
2021/08/16 07:41:02;;;;;;;7.25;3.90;;;;;;;;;;4858519;29;20050;-68
2021/08/16 07:43:29;;;;;;;6.72;4.13;;;;;;;;;;4857824;29;20078;-68
2021/08/16 07:45:55;;;;;;;10.60;3.65;;;;;;;;;;4858568;29;20691;-68
2021/08/16 07:48:22;;;;;;;7.30;3.40;;;;;;;;;;4857806;29;20136;-68
2021/08/16 07:50:48;;;;;;;4.40;3.20;;;;;;;;;;4858347;29;20132;-68
2021/08/16 07:53:15;;;;;;;3.92;3.13;;;;;;;;;;4858070;29;20093;-67
2021/08/16 07:55:41;;;;;;;6.18;3.58;;;;;;;;;;4857996;29;20478;-67
2021/08/16 07:58:08;;;;;;;5.80;3.22;;;;;;;;;;4857545;29;20098;-67
2021/08/16 08:00:34;;;;;;;4.38;3.28;;;;;;;;;;4857925;29;20144;-68
2021/08/16 08:03:01;;;;;;;4.97;3.15;;;;;;;;;;4857931;29;20117;-67
2021/08/16 08:05:28;;;;;;;7.78;3.05;;;;;;;;;;4857962;29;20543;-68
2021/08/16 08:07:55;;;;;;;5.95;3.50;;;;;;;;;;4857948;29;20092;-68
2021/08/16 08:10:22;;;;;;;5.22;3.25;;;;;;;;;;4852510;29;20417;-69
2021/08/16 08:12:49;;;;;;;10.02;3.42;;;;;;;;;;4857272;29;20521;-68
2021/08/16 08:15:17;;;;;;;4.40;2.70;;;;;;;;;;4858801;29;20061;-68
2021/08/16 08:17:43;;;;;;;4.72;2.90;;;;;;;;;;4859040;29;20500;-68
2021/08/16 08:20:15;;;;;;;4.63;2.70;;;;;;;;;;4858754;29;20180;-69
2021/08/16 08:22:42;;;;;;;9.50;3.10;;;;;;;;;;4858422;29;20394;-70
2021/08/16 08:25:09;;;;;;;7.57;3.78;;;;;;;;;;4859006;29;20054;-69
2021/08/16 08:27:35;;;;;;;6.10;3.72;;;;;;;;;;4858803;29;20089;-70
2021/08/16 08:30:03;;;;;;;5.88;3.65;;;;;;;;;;4858858;29;20078;-70
2021/08/16 08:32:30;;;;;;;6.50;3.38;;;;;;;;;;4858690;29;20081;-69
2021/08/16 08:34:57;;;;;;;5.82;3.55;;;;;;;;;;4858991;29;20101;-68
2021/08/16 08:37:23;;;;;;;5.97;3.38;;;;;;;;;;4858797;29;20054;-68
2021/08/16 08:39:50;;;;;;;5.75;3.38;;;;;;;;;;4858647;29;20045;-68
2021/08/16 08:42:16;;;;;;;6.90;3.40;;;;;;;;;;4857135;29;20517;-68
2021/08/16 08:44:44;;;;;;;6.05;3.03;;;;;;;;;;4861258;29;20088;-68
2021/08/16 08:47:12;;;;;;;6.65;3.35;;;;;;;;;;4858776;29;20084;-68
2021/08/16 08:49:40;;;;;;;5.10;3.08;;;;;;;;;;4858372;29;20097;-69
2021/08/16 08:52:06;;;;;;;7.00;3.70;;;;;;;;;;4859005;29;20081;-69
2021/08/16 08:54:35;;;;;;;4.90;3.40;;;;;;;;;;4859394;29;20049;-68
2021/08/16 08:57:23;;;;;;;7.82;3.20;;;;;;;;;;4859399;29;20053;-69
2021/08/16 08:59:50;;;;;;;5.38;3.25;;;;;;;;;;4853349;29;20057;-69
2021/08/16 09:02:17;;;;;;;8.52;3.83;;;;;;;;;;4858797;29;20053;-68
2021/08/16 09:04:51;;;;;;;8.73;3.60;;;;;;;;;;4858005;29;20521;-68
2021/08/16 09:07:29;;;;;;;7.38;3.67;;;;;;;;;;4858592;29;20080;-68
2021/08/16 09:09:55;;;;;;;8.48;4.38;;;;;;;;;;4855128;29;20077;-68
2021/08/16 09:12:32;;;;;;;5.53;3.38;;;;;;;;;;4856656;29;20140;-68
2021/08/16 09:14:59;;;;;;;6.78;4.25;;;;;;;;;;4860548;29;20053;-68
2021/08/16 09:17:29;;;;;;;11.60;4.38;;;;;;;;;;4860896;29;20049;-69
2021/08/16 09:19:56;;;;;;;8.02;3.90;;;;;;;;;;4858788;29;20049;-70
2021/08/16 09:22:24;;;;;;;10.85;3.70;;;;;;;;;;4862524;29;20105;-70
2021/08/16 09:25:06;;;;;;;7.75;4.25;;;;;;;;;;4862569;29;20054;-70
2021/08/16 09:27:33;;;;;;;9.18;3.30;;;;;;;;;;4862852;29;20104;-71
2021/08/16 09:30:00;;;;;;;8.95;3.72;;;;;;;;;;4861898;29;20105;-70
2021/08/16 09:32:31;;;;;;;8.27;4.18;;;;;;;;;;4862006;29;20085;-68
2021/08/16 09:35:06;;;;;;;7.97;3.83;;;;;;;;;;4861895;29;20314;-69
2021/08/16 09:37:33;;;;;;;8.27;4.13;;;;;;;;;;4861494;29;20057;-70
2021/08/16 09:40:01;;;;;;;7.25;3.83;;;;;;;;;;4859553;29;20521;-70
2021/08/16 09:42:28;;;;;;;6.57;3.50;;;;;;;;;;4861228;29;20064;-71
2021/08/16 09:44:57;;;;;;;5.78;3.70;;;;;;;;;;4862041;29;20474;-70
2021/08/16 09:47:23;;;;;;;5.80;3.35;;;;;;;;;;4860857;29;20072;-70
2021/08/16 09:49:57;;;;;;;5.22;3.55;;;;;;;;;;4860663;29;20050;-70
2021/08/16 09:52:30;;;;;;;7.85;3.53;;;;;;;;;;4865001;29;20052;-70
2021/08/16 09:54:57;;;;;;;7.75;3.70;;;;;;;;;;4861993;29;20195;-70
2021/08/16 09:57:27;;;;;;;5.85;3.40;;;;;;;;;;4856484;29;20069;-70
2021/08/16 09:59:55;;;;;;;10.95;3.40;;;;;;;;;;4859454;29;20500;-71
2021/08/16 10:02:24;;;;;;;6.35;3.63;;;;;;;;;;4859782;29;20060;-71
2021/08/16 10:04:51;;;;;;;5.57;3.20;;;;;;;;;;4858132;29;20060;-71
2021/08/16 10:07:20;;;;;;;5.57;3.60;;;;;;;;;;4856127;29;20125;-72
2021/08/16 10:09:50;;;;;;;6.90;2.67;;;;;;;;;;4859111;29;20081;-71
2021/08/16 10:12:17;;;;;;;5.57;3.25;;;;;;;;;;4857891;29;20061;-73
2021/08/16 10:14:43;;;;;;;7.55;2.92;;;;;;;;;;4828006;29;20057;-73
2021/08/16 10:17:21;;;;;;;4.68;3.00;;;;;;;;;;4857221;29;20081;-73
2021/08/16 10:19:49;;;;;;;6.95;2.83;;;;;;;;;;4856971;29;20089;-73
2021/08/16 10:22:16;;;;;;;9.52;3.13;;;;;;;;;;4857346;29;20077;-73
2021/08/16 10:24:42;;;;;;;8.80;3.15;;;;;;;;;;4857412;29;20496;-73
2021/08/16 10:27:10;;;;;;;7.38;3.08;;;;;;;;;;4858691;29;20121;-72
2021/08/16 10:29:39;;;;;;;6.07;2.78;;;;;;;;;;4858218;29;20453;-73
2021/08/16 10:32:18;;;;;;;3.85;2.30;;;;;;;;;;4857524;29;20410;-72
2021/08/16 10:34:45;;;;;;;6.25;3.25;;;;;;;;;;4857749;29;20145;-73
2021/08/16 10:37:15;;;;;;;6.85;3.20;;;;;;;;;;4859099;29;20053;-73
2021/08/16 10:39:45;;;;;;;6.60;2.90;;;;;;;;;;4858660;29;20167;-73
2021/08/16 10:42:19;;;;;;;5.35;3.05;;;;;;;;;;4857068;29;20049;-73
2021/08/16 10:44:50;;;;;;;5.60;2.97;;;;;;;;;;4855475;29;20105;-74
2021/08/16 10:47:31;;;;;;;6.05;2.60;;;;;;;;;;4856313;29;20065;-73
2021/08/16 10:50:18;;;;;;;5.30;2.63;;;;;;;;;;4858248;29;20490;-73
2021/08/16 10:52:45;;;;;;;6.68;2.88;;;;;;;;;;4857686;29;20117;-72
2021/08/16 10:55:16;;;;;;;6.05;3.40;;;;;;;;;;4857971;29;20118;-72
2021/08/16 10:57:48;;;;;;;6.28;2.95;;;;;;;;;;4856589;29;20361;-77
2021/08/16 11:00:16;;;;;;;5.63;2.67;;;;;;;;;;4854568;29;20151;-76
2021/08/16 11:02:43;;;;;;;4.97;3.10;;;;;;;;;;4856786;29;20073;-72
2021/08/16 11:05:11;;;;;;;3.92;2.28;;;;;;;;;;4858272;29;20053;-75
2021/08/16 11:07:39;;;;;;;8.75;3.25;;;;;;;;;;4871546;29;20125;-69
2021/08/16 11:10:07;;;;;;;4.00;2.30;;;;;;;;;;4857014;29;20084;-69
2021/08/16 11:12:42;;;;;;;6.53;2.33;;;;;;;;;;4857281;29;20132;-68
2021/08/16 11:15:11;;;;;;;7.60;3.00;;;;;;;;;;4858141;29;20084;-69
2021/08/16 11:17:38;;;;;;;6.15;3.47;;;;;;;;;;4857439;29;20088;-74
2021/08/16 11:20:07;;;;;;;5.97;2.70;;;;;;;;;;4855380;29;20064;-71
2021/08/16 11:22:33;;;;;;;4.88;2.55;;;;;;;;;;4857016;29;20478;-73
2021/08/16 11:25:04;;;;;;;6.50;2.60;;;;;;;;;;4857100;29;20135;-72
2021/08/16 11:27:31;;;;;;;9.30;2.95;;;;;;;;;;4849767;29;20053;-70
2021/08/16 11:30:00;;;;;;;6.85;3.42;;;;;;;;;;4857465;29;20531;-75
2021/08/16 11:32:28;;;;;;;5.13;2.55;;;;;;;;;;4853948;29;20085;-74
2021/08/16 11:34:56;;;;;;;4.95;2.72;;;;;;;;;;4856301;29;20126;-73
2021/08/16 11:37:30;;;;;;;4.70;2.65;;;;;;;;;;4856133;29;20091;-73
2021/08/16 11:39:58;;;;;;;10.38;3.28;;;;;;;;;;4854676;29;20128;-74
2021/08/16 11:42:44;;;;;;;6.22;2.40;;;;;;;;;;4857651;29;20076;-74
2021/08/16 11:45:14;;;;;;;5.00;2.67;;;;;;;;;;4855804;29;20091;-73
2021/08/16 11:47:48;;;;;;;6.68;2.80;;;;;;;;;;4853992;29;20101;-74
2021/08/16 11:50:17;;;;;;;7.78;2.42;;;;;;;;;;4857288;29;20054;-74
2021/08/16 11:52:44;;;;;;;7.18;2.55;;;;;;;;;;4857367;29;20057;-74
2021/08/16 11:55:11;;;;;;;4.38;2.42;;;;;;;;;;4856619;29;20120;-75
2021/08/16 11:57:39;;;;;;;3.83;2.42;;;;;;;;;;4832618;29;20069;-74
2021/08/16 12:00:07;;;;;;;5.20;2.25;;;;;;;;;;4856041;29;20136;-75
2021/08/16 12:02:39;;;;;;;4.07;2.45;;;;;;;;;;4854935;29;20065;-74
2021/08/16 12:05:07;;;;;;;3.90;2.70;;;;;;;;;;4869027;29;20136;-74
2021/08/16 12:07:34;;;;;;;5.82;2.75;;;;;;;;;;4855789;29;20049;-73
2021/08/16 12:10:00;;;;;;;5.05;2.83;;;;;;;;;;4856647;29;20049;-74
2021/08/16 12:12:30;;;;;;;6.05;3.03;;;;;;;;;;4856996;29;20081;-74
2021/08/16 12:15:09;;;;;;;5.30;2.67;;;;;;;;;;4857406;29;20109;-74
2021/08/16 12:17:36;;;;;;;6.80;2.50;;;;;;;;;;4888406;23;20052;-70
2021/08/16 12:20:08;;;;;;;5.28;2.53;;;;;;;;;;4855173;29;20117;-70
2021/08/16 12:22:53;;;;;;;9.23;2.70;;;;;;;;;;4857778;29;20105;-70
2021/08/16 12:25:21;;;;;;;4.75;2.58;;;;;;;;;;4858897;29;20472;-69
2021/08/16 12:27:57;;;;;;;8.57;2.80;;;;;;;;;;4855885;29;20085;-70
2021/08/16 12:30:28;;;;;;;4.90;2.33;;;;;;;;;;4858478;29;20088;-70
2021/08/16 12:33:08;;;;;;;4.07;2.50;;;;;;;;;;4857307;29;20513;-70
2021/08/16 12:35:35;;;;;;;5.82;2.58;;;;;;;;;;4858448;29;20484;-70
2021/08/16 12:38:03;;;;;;;4.50;2.53;;;;;;;;;;4857830;29;20081;-69
2021/08/16 12:40:29;;;;;;;4.25;2.30;;;;;;;;;;4857968;29;20081;-70
2021/08/16 12:42:58;;;;;;;5.65;2.20;;;;;;;;;;4856288;29;20049;-69
2021/08/16 12:45:25;;;;;;;4.97;2.55;;;;;;;;;;4857814;29;20120;-71
2021/08/16 12:48:01;;;;;;;7.82;2.83;;;;;;;;;;4857897;29;20054;-70
2021/08/16 12:50:29;;;;;;;4.30;2.72;;;;;;;;;;4856676;29;20085;-69
2021/08/16 12:52:56;;;;;;;7.43;2.70;;;;;;;;;;4857117;29;20076;-69
2021/08/16 12:55:22;;;;;;;5.00;2.88;;;;;;;;;;4858333;29;20053;-69
2021/08/16 12:57:50;;;;;;;5.82;2.55;;;;;;;;;;4856838;29;21477;-70
2021/08/16 13:00:18;;;;;;;5.68;2.45;;;;;;;;;;4857167;29;20049;-70
2021/08/16 13:02:45;;;;;;;3.65;2.47;;;;;;;;;;4857904;29;20055;-70
2021/08/16 13:05:12;;;;;;;6.25;3.15;;;;;;;;;;4851519;29;20082;-69
2021/08/16 13:07:39;;;;;;;7.32;2.78;;;;;;;;;;4859035;29;20148;-71
2021/08/16 13:10:47;;;;;;;;;;;;;;;;;;;;;
2021/08/16 13:14:01;;;;;;;6.28;2.75;;;;;;;;;;4861522;29;20208;-82
2021/08/16 13:16:52;;;;;;;4.20;2.58;;;;;;;;;;4878451;29;20110;-78
2021/08/16 13:19:37;;;;;;;6.03;3.17;;;;;;;;;;4862832;29;20060;-79
2021/08/16 13:22:04;;;;;;;5.38;3.03;;;;;;;;;;4854730;29;20098;-77
2021/08/16 13:28:11;;;;;;;6.00;2.90;;;;;;;;;;4920300;23;20064;-73
2021/08/16 13:30:37;;;;;;;5.53;3.92;;;;;;;;;;4912533;29;20147;-74
2021/08/16 13:33:04;;;;;;;5.10;2.55;;;;;;;;;;4906064;29;20048;-73
2021/08/16 13:35:31;;;;;;;5.47;2.75;;;;;;;;;;4911805;29;20167;-73
2021/08/16 13:37:58;;;;;;;3.88;2.50;;;;;;;;;;4912644;29;20090;-73
2021/08/16 13:40:25;;;;;;;5.22;3.22;;;;;;;;;;4912082;29;20088;-74
2021/08/16 13:42:52;;;;;;;4.00;2.70;;;;;;;;;;4911414;29;20465;-74
2021/08/16 13:45:19;;;;;;;4.53;2.80;;;;;;;;;;4906777;29;20068;-73
2021/08/16 13:47:46;;;;;;;4.88;2.88;;;;;;;;;;4912564;29;20051;-74
2021/08/16 13:50:13;;;;;;;5.63;2.78;;;;;;;;;;4912305;29;20198;-74
2021/08/16 13:52:39;;;;;;;4.95;2.75;;;;;;;;;;4912443;29;20055;-73
2021/08/16 13:55:07;;;;;;;4.03;2.58;;;;;;;;;;4912268;29;20143;-73
2021/08/16 13:57:33;;;;;;;5.07;2.33;;;;;;;;;;4909092;29;20052;-72
2021/08/16 14:00:01;;;;;;;5.40;2.47;;;;;;;;;;4912433;29;20135;-72
2021/08/16 14:02:29;;;;;;;4.82;2.47;;;;;;;;;;4915678;29;20526;-72
2021/08/16 14:04:56;;;;;;;2.85;2.10;;;;;;;;;;4900253;29;20546;-72
2021/08/16 14:07:22;;;;;;;5.95;2.15;;;;;;;;;;4915072;29;20052;-73
2021/08/16 14:09:49;;;;;;;3.97;1.77;;;;;;;;;;4895784;29;20059;-73
2021/08/16 14:12:16;;;;;;;4.40;2.15;;;;;;;;;;4914629;29;20059;-72
2021/08/16 14:14:43;;;;;;;4.00;2.42;;;;;;;;;;4915762;29;20531;-72
2021/08/16 14:17:10;;;;;;;8.50;2.92;;;;;;;;;;4915080;29;20048;-72
2021/08/16 14:22:05;;;;;;;4.63;2.72;;;;;;;;;;4905191;29;20115;-70
2021/08/16 14:24:32;;;;;;;4.60;2.20;;;;;;;;;;4906593;29;20113;-66
2021/08/16 14:26:58;;;;;;;3.90;2.25;;;;;;;;;;4910293;29;20080;-65
2021/08/16 14:29:25;;;;;;;6.10;2.67;;;;;;;;;;4908363;29;20053;-66
2021/08/16 14:31:52;;;;;;;4.75;2.78;;;;;;;;;;4903392;29;20748;-69
2021/08/16 14:34:19;;;;;;;5.20;2.35;;;;;;;;;;4905311;29;20056;-71
2021/08/16 14:39:52;;;;;;;4.15;2.42;;;;;;;;;;4887022;29;20061;-70
2021/08/16 14:42:20;;;;;;;4.15;2.10;;;;;;;;;;4902561;29;20062;-70
2021/08/16 14:44:48;;;;;;;4.93;2.20;;;;;;;;;;4909200;29;20396;-71
2021/08/16 14:47:15;;;;;;;6.85;2.40;;;;;;;;;;4902826;29;20576;-71
2021/08/16 14:49:41;;;;;;;4.97;2.45;;;;;;;;;;4906337;29;20048;-71